Time;durP1;ratioP1;P1;durP2;ratioP2;P2;SDS_P1;SDS_P2;PMS_P1;PMS_P2;Temp;Humidity;BMP_temperature;BMP_pressure;BME280_temperature;BME280_humidity;BME280_pressure;Samples;Min_cycle;Max_cycle;Signal;HPM_P1;HPM_P2
2023/12/09 00:01:19;;;;;;;34.97;7.63;;;;;;;5.77;100.00;100928.09;6250084;22;20452;-82
2023/12/09 00:03:44;;;;;;;34.40;7.32;;;;;;;5.74;100.00;100917.72;6277054;22;20003;-82
2023/12/09 00:06:10;;;;;;;34.60;7.13;;;;;;;5.70;100.00;100911.88;6225088;22;20099;-82
2023/12/09 00:08:38;;;;;;;37.37;8.07;;;;;;;5.69;100.00;100920.94;6249509;22;20492;-82
2023/12/09 00:11:03;;;;;;;39.17;7.93;;;;;;;5.69;100.00;100917.44;6226452;22;20023;-82
2023/12/09 00:13:32;;;;;;;32.07;7.83;;;;;;;5.69;100.00;100915.56;6251463;22;20012;-82
2023/12/09 00:16:00;;;;;;;28.30;7.13;;;;;;;5.69;100.00;100914.75;6226871;22;20254;-83
2023/12/09 00:18:26;;;;;;;42.25;8.35;;;;;;;5.66;100.00;100913.25;6252287;22;20318;-82
2023/12/09 00:20:51;;;;;;;35.60;7.90;;;;;;;5.65;100.00;100916.94;6226138;22;20023;-82
2023/12/09 00:23:16;;;;;;;33.88;7.53;;;;;;;5.62;100.00;100915.47;6278813;22;20035;-82
2023/12/09 00:25:42;;;;;;;30.90;7.73;;;;;;;5.61;100.00;100916.47;6226472;22;20003;-82
2023/12/09 00:28:10;;;;;;;35.20;6.87;;;;;;;5.63;100.00;100916.28;6226790;22;20418;-82
2023/12/09 00:30:36;;;;;;;27.75;6.88;;;;;;;5.68;100.00;100926.50;6251939;22;20007;-82
2023/12/09 00:33:01;;;;;;;35.27;7.00;;;;;;;5.71;100.00;100923.47;6251745;22;20035;-82
2023/12/09 00:35:27;;;;;;;34.70;7.20;;;;;;;5.76;100.00;100913.81;6278837;22;20012;-86
2023/12/09 00:37:53;;;;;;;27.40;6.80;;;;;;;5.80;100.00;100930.44;6226875;22;20330;-83
2023/12/09 00:40:19;;;;;;;32.50;7.57;;;;;;;5.80;100.00;100914.28;6226020;22;20012;-82
2023/12/09 00:42:46;;;;;;;27.13;6.55;;;;;;;5.79;100.00;100899.16;6278370;22;20008;-82
2023/12/09 00:45:13;;;;;;;38.45;8.02;;;;;;;5.79;100.00;100913.44;6226644;22;20437;-82
2023/12/09 00:47:38;;;;;;;29.70;6.57;;;;;;;5.82;100.00;100908.72;6251391;22;20121;-82
2023/12/09 00:50:05;;;;;;;27.38;6.95;;;;;;;5.71;100.00;100921.59;6226378;22;20094;-83
2023/12/09 00:52:31;;;;;;;35.80;8.10;;;;;;;5.70;100.00;100921.78;6226395;22;20390;-82
2023/12/09 00:54:56;;;;;;;32.90;7.33;;;;;;;5.65;100.00;100916.94;6251195;22;20050;-82
2023/12/09 00:57:24;;;;;;;39.13;7.27;;;;;;;5.57;100.00;100901.69;6201044;22;20008;-82
2023/12/09 00:59:49;;;;;;;32.63;7.28;;;;;;;5.60;100.00;100892.44;6251460;22;20008;-82
2023/12/09 01:02:15;;;;;;;36.57;8.13;;;;;;;5.55;100.00;100895.69;6278335;22;20007;-82
2023/12/09 01:04:40;;;;;;;33.37;7.50;;;;;;;5.50;100.00;100905.31;6226302;22;20433;-82
2023/12/09 01:07:08;;;;;;;33.83;7.38;;;;;;;5.44;100.00;100905.00;6251510;22;20253;-82
2023/12/09 01:09:34;;;;;;;38.60;7.88;;;;;;;5.47;100.00;100908.34;6226966;22;20019;-83
2023/12/09 01:12:00;;;;;;;24.08;5.88;;;;;;;5.45;100.00;100911.22;6251695;22;20020;-82
2023/12/09 01:14:25;;;;;;;37.70;8.10;;;;;;;5.49;100.00;100898.25;6278087;22;20030;-82
2023/12/09 01:16:51;;;;;;;34.78;7.57;;;;;;;5.44;100.00;100898.78;6225988;22;20011;-82
2023/12/09 01:19:16;;;;;;;42.60;7.97;;;;;;;5.39;100.00;100896.63;6226683;22;20103;-82
2023/12/09 01:21:42;;;;;;;27.83;6.80;;;;;;;5.40;100.00;100895.63;6226004;22;20019;-82
2023/12/09 01:24:10;;;;;;;37.85;7.95;;;;;;;5.40;100.00;100900.16;6226693;22;20015;-82
2023/12/09 01:26:36;;;;;;;35.50;8.23;;;;;;;5.39;100.00;100898.50;6278322;22;20003;-82
2023/12/09 01:29:03;;;;;;;33.78;7.50;;;;;;;5.32;100.00;100895.69;6226621;22;20034;-83
2023/12/09 01:31:28;;;;;;;44.60;8.20;;;;;;;5.31;100.00;100891.31;6226812;22;20004;-82
2023/12/09 01:33:54;;;;;;;38.85;8.38;;;;;;;5.30;100.00;100899.56;6251407;22;20344;-82
2023/12/09 01:36:19;;;;;;;31.87;7.90;;;;;;;5.26;100.00;100897.22;6225443;22;20434;-82
2023/12/09 01:38:45;;;;;;;36.13;7.97;;;;;;;5.30;100.00;100895.03;6225847;22;20441;-82
2023/12/09 01:41:10;;;;;;;35.60;7.70;;;;;;;5.30;100.00;100899.56;6225890;22;20457;-82
2023/12/09 01:43:36;;;;;;;38.87;8.43;;;;;;;5.32;100.00;100898.38;6225346;22;20076;-82
2023/12/09 01:46:11;;;;;;;40.43;8.77;;;;;;;5.29;100.00;100887.16;6250982;22;20007;-82
2023/12/09 01:48:38;;;;;;;33.83;9.43;;;;;;;5.25;100.00;100881.25;6226046;22;20357;-82
2023/12/09 01:51:05;;;;;;;39.38;9.25;;;;;;;5.27;100.00;100871.19;6252070;22;20410;-81
2023/12/09 01:53:31;;;;;;;36.53;7.55;;;;;;;5.23;100.00;100856.41;6250505;22;20446;-82
2023/12/09 01:56:02;;;;;;;39.22;8.48;;;;;;;5.25;100.00;100859.75;6250469;22;20430;-82
2023/12/09 01:58:27;;;;;;;34.00;7.83;;;;;;;5.25;100.00;100857.88;6225329;22;20012;-82
2023/12/09 02:00:53;;;;;;;42.95;8.90;;;;;;;5.24;100.00;100858.06;6251539;22;20004;-82
2023/12/09 02:03:21;;;;;;;39.10;8.23;;;;;;;5.25;100.00;100854.38;6250941;22;20008;-82
2023/12/09 02:05:46;;;;;;;37.70;7.78;;;;;;;5.21;100.00;100867.34;6250716;22;20250;-82
2023/12/09 02:08:12;;;;;;;33.27;7.73;;;;;;;5.21;100.00;100869.19;6225044;22;20341;-82
2023/12/09 02:10:38;;;;;;;33.65;8.30;;;;;;;5.17;100.00;100871.41;6250890;22;20261;-82
2023/12/09 02:13:11;;;;;;;31.50;7.47;;;;;;;5.16;100.00;100867.03;6276903;22;20014;-82
2023/12/09 02:15:55;;;;;;;39.40;7.57;;;;;;;5.15;100.00;100859.97;6278378;22;20229;-82
2023/12/09 02:18:22;;;;;;;35.08;7.53;;;;;;;5.16;100.00;100864.34;6250678;22;20007;-82
2023/12/09 02:20:48;;;;;;;38.60;7.47;;;;;;;5.14;100.00;100868.22;6228051;22;20103;-82
2023/12/09 02:23:13;;;;;;;49.97;8.60;;;;;;;5.09;100.00;100864.25;6220638;23;20032;-81
2023/12/09 02:25:40;;;;;;;29.10;8.30;;;;;;;5.04;100.00;100850.47;6220178;23;20008;-82
2023/12/09 02:28:15;;;;;;;38.80;7.55;;;;;;;5.07;100.00;100850.13;6220723;23;20063;-82
2023/12/09 02:31:04;;;;;;;49.15;7.13;;;;;;;5.07;100.00;100849.28;6247503;23;20004;-82
2023/12/09 02:33:30;;;;;;;32.83;7.57;;;;;;;5.05;100.00;100848.66;6204080;23;20008;-82
2023/12/09 02:35:59;;;;;;;34.08;7.20;;;;;;;4.99;100.00;100849.34;6220417;23;20088;-82
2023/12/09 02:38:28;;;;;;;38.77;8.20;;;;;;;4.97;100.00;100843.31;6196519;23;20441;-82
2023/12/09 02:40:55;;;;;;;39.22;8.25;;;;;;;4.95;100.00;100823.84;6220091;23;20063;-82
2023/12/09 02:43:22;;;;;;;35.10;6.90;;;;;;;4.94;100.00;100832.91;6247432;23;20007;-82
2023/12/09 02:45:48;;;;;;;33.35;7.82;;;;;;;4.89;100.00;100823.53;6194676;23;20446;-82
2023/12/09 02:48:13;;;;;;;32.07;7.13;;;;;;;4.89;100.00;100828.09;6220347;23;20011;-82
2023/12/09 02:50:39;;;;;;;36.17;7.55;;;;;;;4.86;100.00;100826.56;6219661;23;20043;-82
2023/12/09 02:53:06;;;;;;;35.73;7.40;;;;;;;4.87;100.00;100822.03;6170918;23;20016;-82
2023/12/09 02:55:31;;;;;;;49.35;7.93;;;;;;;4.88;100.00;100826.41;6195242;23;20387;-82
2023/12/09 02:57:59;;;;;;;32.43;6.63;;;;;;;4.90;100.00;100818.97;6246555;23;20345;-82
2023/12/09 03:00:24;;;;;;;39.35;8.55;;;;;;;4.86;100.00;100831.13;6195572;23;20095;-82
2023/12/09 03:02:50;;;;;;;36.80;8.13;;;;;;;4.80;100.00;100802.25;6247746;23;20441;-82
2023/12/09 03:05:15;;;;;;;38.47;7.23;;;;;;;4.82;100.00;100819.06;6220123;23;20334;-82
2023/12/09 03:07:41;;;;;;;30.07;7.07;;;;;;;4.80;100.00;100794.19;6220611;23;20449;-82
2023/12/09 03:10:06;;;;;;;35.00;6.88;;;;;;;4.80;100.00;100821.91;6219947;23;20333;-82
2023/12/09 03:12:32;;;;;;;38.40;6.90;;;;;;;4.80;100.00;100796.88;6246802;23;20004;-82
2023/12/09 03:14:57;;;;;;;39.27;7.50;;;;;;;4.83;100.00;100821.56;6246947;23;20012;-82
2023/12/09 03:17:24;;;;;;;37.67;6.88;;;;;;;4.80;100.00;100803.09;6219798;23;20258;-82
2023/12/09 03:19:52;;;;;;;25.93;6.20;;;;;;;4.77;100.00;100824.97;6224544;23;20024;-82
2023/12/09 03:22:17;;;;;;;33.40;6.28;;;;;;;4.76;100.00;100799.09;6219902;23;20262;-82
2023/12/09 03:24:43;;;;;;;33.17;7.15;;;;;;;4.83;100.00;100815.34;6194664;23;20012;-82
2023/12/09 03:27:09;;;;;;;36.63;6.15;;;;;;;4.84;100.00;100801.72;6247053;23;20011;-82
2023/12/09 03:29:36;;;;;;;39.80;7.03;;;;;;;4.87;100.00;100809.44;6219696;23;20401;-82
2023/12/09 03:32:01;;;;;;;32.90;7.53;;;;;;;4.88;100.00;100804.88;6219699;23;20078;-82
2023/12/09 03:34:27;;;;;;;32.60;6.90;;;;;;;4.82;100.00;100802.91;6194695;23;20038;-82
2023/12/09 03:36:52;;;;;;;35.00;7.03;;;;;;;4.82;100.00;100792.16;6219216;23;20035;-82
2023/12/09 03:39:17;;;;;;;29.40;6.67;;;;;;;4.83;100.00;100793.84;6220470;23;20058;-82
2023/12/09 03:41:43;;;;;;;31.23;6.07;;;;;;;4.82;100.00;100792.16;6246318;23;20032;-82
2023/12/09 03:44:08;;;;;;;40.83;6.27;;;;;;;4.85;100.00;100787.25;6195174;23;20020;-82
2023/12/09 03:46:34;;;;;;;29.65;5.25;;;;;;;4.87;100.00;100789.75;6223130;23;20043;-82
2023/12/09 03:48:59;;;;;;;30.93;6.77;;;;;;;4.85;100.00;100787.25;6197795;23;20438;-82
2023/12/09 03:51:24;;;;;;;27.47;6.13;;;;;;;4.83;100.00;100777.72;6223137;23;20004;-82
2023/12/09 03:53:50;;;;;;;43.60;6.47;;;;;;;4.83;100.00;100775.03;6222789;23;20446;-82
2023/12/09 03:56:20;;;;;;;27.00;5.60;;;;;;;4.84;100.00;100766.78;6173280;23;20073;-82
2023/12/09 03:58:45;;;;;;;23.23;5.88;;;;;;;4.81;100.00;100759.06;6198955;23;20254;-82
2023/12/09 04:01:11;;;;;;;24.63;4.73;;;;;;;4.82;100.00;100757.22;6222549;23;20023;-82
2023/12/09 04:03:36;;;;;;;28.75;5.07;;;;;;;4.80;100.00;100740.41;6198839;23;20258;-82
2023/12/09 04:06:03;;;;;;;27.43;6.10;;;;;;;4.79;100.00;100754.91;6197855;23;20458;-82
2023/12/09 04:08:29;;;;;;;21.65;4.65;;;;;;;4.74;100.00;100760.81;6198286;23;20431;-82
2023/12/09 04:10:57;;;;;;;33.93;5.50;;;;;;;4.77;100.00;100764.97;6223179;23;20015;-82
2023/12/09 04:13:23;;;;;;;25.88;5.38;;;;;;;4.79;100.00;100766.47;6198176;23;20011;-82
2023/12/09 04:15:48;;;;;;;41.10;6.13;;;;;;;4.79;100.00;100758.41;6197568;23;20012;-82
2023/12/09 04:18:13;;;;;;;34.97;5.73;;;;;;;4.82;100.00;100768.78;6222857;23;20419;-82
2023/12/09 04:20:39;;;;;;;34.40;5.83;;;;;;;4.78;100.00;100772.03;6217941;22;20051;-82
2023/12/09 04:23:07;;;;;;;34.88;5.18;;;;;;;4.79;100.00;100760.28;6280034;22;20043;-82
2023/12/09 04:25:35;;;;;;;29.70;5.00;;;;;;;4.77;100.00;100762.28;6253622;22;20426;-82
2023/12/09 04:28:01;;;;;;;39.63;5.95;;;;;;;4.73;100.00;100751.91;6253334;22;20072;-82
2023/12/09 04:30:26;;;;;;;28.90;5.30;;;;;;;4.74;100.00;100728.56;6280353;22;20035;-82
2023/12/09 04:32:54;;;;;;;29.33;5.07;;;;;;;4.76;100.00;100739.13;6253121;22;20027;-82
2023/12/09 04:35:20;;;;;;;26.77;5.25;;;;;;;4.78;100.00;100737.09;6280783;22;20069;-82
2023/12/09 04:37:45;;;;;;;34.63;5.03;;;;;;;4.79;100.00;100733.38;6226908;22;20060;-82
2023/12/09 04:40:11;;;;;;;28.13;5.80;;;;;;;4.80;100.00;100733.22;6253087;22;20022;-82
2023/12/09 04:42:37;;;;;;;27.13;5.43;;;;;;;4.81;100.00;100734.03;6228075;22;20437;-82
2023/12/09 04:45:04;;;;;;;27.88;4.97;;;;;;;4.83;100.00;100721.25;6228071;22;20495;-82
2023/12/09 04:47:29;;;;;;;29.67;5.30;;;;;;;4.84;100.00;100726.47;6252781;22;20012;-82
2023/12/09 04:49:55;;;;;;;29.77;5.40;;;;;;;4.87;100.00;100726.09;6253260;22;20334;-82
2023/12/09 04:52:20;;;;;;;25.50;4.90;;;;;;;4.85;100.00;100703.09;6253613;22;20417;-82
2023/12/09 04:54:46;;;;;;;26.20;4.20;;;;;;;4.88;100.00;100724.22;6253795;22;20016;-82
2023/12/09 04:57:11;;;;;;;23.48;4.70;;;;;;;4.89;100.00;100702.53;6226672;22;20280;-82
2023/12/09 04:59:37;;;;;;;21.87;4.20;;;;;;;4.91;100.00;100716.63;6252049;22;20602;-82
2023/12/09 05:02:03;;;;;;;32.47;5.50;;;;;;;4.95;100.00;100706.38;6251650;22;20422;-82
2023/12/09 05:04:28;;;;;;;25.52;4.57;;;;;;;4.97;100.00;100700.81;6251762;22;20012;-82
2023/12/09 05:06:54;;;;;;;27.03;5.10;;;;;;;4.96;100.00;100702.66;6226184;22;20307;-81
2023/12/09 05:09:22;;;;;;;30.07;4.50;;;;;;;5.01;100.00;100704.81;6225915;22;20066;-82
2023/12/09 05:11:47;;;;;;;22.33;4.82;;;;;;;5.02;100.00;100693.00;6251495;22;20012;-82
2023/12/09 05:14:13;;;;;;;24.77;4.32;;;;;;;5.00;100.00;100697.75;6251332;22;20011;-82
2023/12/09 05:16:38;;;;;;;33.63;4.20;;;;;;;4.96;100.00;100696.44;6201626;22;20064;-82
2023/12/09 05:19:05;;;;;;;28.67;5.00;;;;;;;4.93;100.00;100703.00;6225797;22;20046;-82
2023/12/09 05:21:33;;;;;;;24.98;5.10;;;;;;;4.90;100.00;100701.53;6251619;22;20004;-82
2023/12/09 05:23:59;;;;;;;30.50;4.50;;;;;;;4.89;100.00;100691.78;6251927;22;20035;-82
2023/12/09 05:26:31;;;;;;;26.27;4.37;;;;;;;4.87;100.00;100693.84;6200949;22;20382;-82
2023/12/09 05:28:57;;;;;;;21.60;3.85;;;;;;;4.88;100.00;100687.41;6251247;22;20053;-81
2023/12/09 05:31:23;;;;;;;22.67;4.32;;;;;;;4.83;100.00;100689.00;6250792;22;20011;-82
2023/12/09 05:33:48;;;;;;;21.83;3.90;;;;;;;4.82;100.00;100687.31;6252060;22;20039;-82
2023/12/09 05:36:14;;;;;;;23.35;4.75;;;;;;;4.81;100.00;100693.72;6250783;22;20065;-82
2023/12/09 05:38:42;;;;;;;23.13;3.95;;;;;;;4.83;100.00;100694.38;6251376;22;20490;-82
2023/12/09 05:41:11;;;;;;;32.65;5.03;;;;;;;4.83;100.00;100687.16;6250968;22;20090;-82
2023/12/09 05:43:37;;;;;;;28.20;4.20;;;;;;;4.84;100.00;100685.28;6225413;22;20068;-82
2023/12/09 05:46:04;;;;;;;17.15;3.63;;;;;;;4.79;100.00;100676.94;6278528;22;20453;-82
2023/12/09 05:48:34;;;;;;;26.67;4.88;;;;;;;4.81;100.00;100675.72;6225358;22;20342;-82
2023/12/09 05:51:00;;;;;;;24.33;4.32;;;;;;;4.84;100.00;100675.38;6250908;22;20018;-82
2023/12/09 05:53:26;;;;;;;26.67;3.63;;;;;;;4.84;100.00;100667.31;6225889;22;20007;-82
2023/12/09 05:55:52;;;;;;;26.65;3.85;;;;;;;4.85;100.00;100663.59;6250922;22;20011;-82
2023/12/09 05:58:18;;;;;;;24.13;4.35;;;;;;;4.84;100.00;100666.47;6226737;22;20016;-81
2023/12/09 06:00:43;;;;;;;25.00;3.53;;;;;;;4.84;100.00;100671.84;6250701;22;20007;-82
2023/12/09 06:03:09;;;;;;;24.48;4.13;;;;;;;4.86;100.00;100673.34;6251055;22;20330;-82
2023/12/09 06:05:34;;;;;;;19.70;4.10;;;;;;;4.84;100.00;100677.22;6250481;22;20007;-82
2023/12/09 06:08:00;;;;;;;18.30;3.00;;;;;;;4.87;100.00;100666.09;6225370;22;20020;-82
2023/12/09 06:10:25;;;;;;;29.07;3.70;;;;;;;4.81;100.00;100664.97;6225843;22;20031;-82
2023/12/09 06:12:51;;;;;;;19.10;3.53;;;;;;;4.80;100.00;100660.63;6225535;22;20011;-82
2023/12/09 06:15:25;;;;;;;21.70;3.60;;;;;;;4.84;100.00;100648.50;6225221;22;20012;-82
2023/12/09 06:17:54;;;;;;;21.48;3.38;;;;;;;4.82;100.00;100644.31;6251372;22;20004;-82
2023/12/09 06:20:19;;;;;;;20.65;4.07;;;;;;;4.76;100.00;100635.13;6250996;22;20442;-82
2023/12/09 06:22:50;;;;;;;24.97;3.63;;;;;;;4.76;100.00;100626.22;6250878;22;20007;-82
2023/12/09 06:25:16;;;;;;;25.38;3.50;;;;;;;4.68;100.00;100632.50;6227422;22;20081;-82
2023/12/09 06:27:41;;;;;;;25.67;4.53;;;;;;;4.67;100.00;100634.38;6251085;22;20422;-82
2023/12/09 06:30:09;;;;;;;21.83;4.57;;;;;;;4.67;100.00;100637.03;6225087;22;20437;-82
2023/12/09 06:32:35;;;;;;;24.45;3.80;;;;;;;4.67;100.00;100631.66;6250714;22;20403;-82
2023/12/09 06:35:06;;;;;;;27.03;3.67;;;;;;;4.65;100.00;100617.59;6250191;22;20443;-82
2023/12/09 06:37:31;;;;;;;29.90;4.07;;;;;;;4.67;100.00;100620.09;6249859;22;20294;-82
2023/12/09 06:39:59;;;;;;;25.37;3.77;;;;;;;4.67;100.00;100617.41;6225188;22;20016;-82
2023/12/09 06:42:24;;;;;;;16.77;3.10;;;;;;;4.65;100.00;100608.69;6226126;22;20016;-81
2023/12/09 06:44:52;;;;;;;22.97;3.57;;;;;;;4.66;100.00;100603.13;6224878;22;20345;-83
2023/12/09 06:47:17;;;;;;;24.23;3.40;;;;;;;4.69;100.00;100605.44;6250393;22;20747;-84
2023/12/09 06:49:43;;;;;;;21.10;3.73;;;;;;;4.70;100.00;100591.00;6224548;22;20008;-84
2023/12/09 06:52:08;;;;;;;28.23;3.35;;;;;;;4.74;100.00;100584.25;6225753;22;20251;-84
2023/12/09 06:54:34;;;;;;;22.00;4.17;;;;;;;4.74;100.00;100584.25;6224728;22;20083;-84
2023/12/09 06:57:02;;;;;;;18.27;4.17;;;;;;;4.73;100.00;100563.75;6225317;22;20437;-85
2023/12/09 06:59:27;;;;;;;37.42;3.88;;;;;;;4.74;100.00;100551.97;6225791;22;20016;-82
2023/12/09 07:01:56;;;;;;;23.10;3.50;;;;;;;4.76;100.00;100543.72;6250622;22;20372;-83
2023/12/09 07:04:22;;;;;;;25.13;3.33;;;;;;;4.71;100.00;100538.91;6250430;22;20035;-82
2023/12/09 07:06:47;;;;;;;22.02;4.07;;;;;;;4.73;100.00;100534.19;6276988;22;20012;-83
2023/12/09 07:09:13;;;;;;;25.87;3.47;;;;;;;4.73;100.00;100536.88;6225350;22;20008;-83
2023/12/09 07:11:38;;;;;;;18.50;3.30;;;;;;;4.74;100.00;100517.03;6224497;22;20100;-82
2023/12/09 07:14:03;;;;;;;20.03;2.90;;;;;;;4.79;100.00;100510.28;6199819;22;20334;-84
2023/12/09 07:16:29;;;;;;;31.60;3.57;;;;;;;4.86;100.00;100514.72;6250163;22;20087;-85
2023/12/09 07:18:59;;;;;;;20.98;3.00;;;;;;;4.97;100.00;100504.53;6249614;22;20004;-83
2023/12/09 07:21:26;;;;;;;23.58;3.38;;;;;;;5.02;100.00;100489.50;6251312;22;20024;-84
2023/12/09 07:23:51;;;;;;;13.73;2.38;;;;;;;5.13;100.00;100498.94;6250179;22;20015;-84
2023/12/09 07:26:18;;;;;;;24.67;2.93;;;;;;;5.14;100.00;100503.28;6224821;22;20012;-84
2023/12/09 07:28:44;;;;;;;18.73;3.00;;;;;;;5.21;100.00;100511.44;6277384;22;20238;-83
2023/12/09 07:31:10;;;;;;;24.02;3.30;;;;;;;5.24;100.00;100519.97;6250020;22;20016;-84
2023/12/09 07:33:36;;;;;;;16.67;2.60;;;;;;;5.30;100.00;100514.84;6249609;22;20019;-83
2023/12/09 07:36:04;;;;;;;12.93;2.88;;;;;;;5.33;100.00;100498.31;6275123;22;20246;-83
2023/12/09 07:38:30;;;;;;;16.27;3.00;;;;;;;5.33;100.00;100484.88;6224893;22;20012;-83
2023/12/09 07:40:55;;;;;;;17.03;2.90;;;;;;;5.35;100.00;100480.16;6249815;22;20449;-86
2023/12/09 07:43:21;;;;;;;19.67;2.67;;;;;;;5.35;100.00;100472.91;6224520;22;20467;-83
2023/12/09 07:45:46;;;;;;;14.83;3.23;;;;;;;5.39;100.00;100474.19;6199834;22;20015;-83
2023/12/09 07:48:12;;;;;;;20.88;2.67;;;;;;;5.40;100.00;100491.16;6199721;22;20430;-83
2023/12/09 07:50:37;;;;;;;18.15;2.92;;;;;;;5.42;100.00;100491.81;6249979;22;20438;-83
2023/12/09 07:53:02;;;;;;;20.00;3.00;;;;;;;5.41;100.00;100477.53;6224246;22;20007;-84
2023/12/09 07:55:28;;;;;;;22.00;2.60;;;;;;;5.45;100.00;100475.31;6277282;22;20000;-83
2023/12/09 07:57:54;;;;;;;20.63;3.03;;;;;;;5.50;100.00;100477.41;6277003;22;20062;-83
2023/12/09 08:00:19;;;;;;;13.80;2.37;;;;;;;5.56;100.00;100466.69;6249600;22;20011;-83
2023/12/09 08:02:45;;;;;;;24.10;2.97;;;;;;;5.62;100.00;100451.66;6224974;22;20402;-84
2023/12/09 08:05:10;;;;;;;25.88;2.83;;;;;;;5.65;100.00;100450.44;6250927;22;20314;-83
2023/12/09 08:07:36;;;;;;;14.82;2.45;;;;;;;5.69;100.00;100438.25;6224421;22;20411;-83
2023/12/09 08:10:01;;;;;;;17.30;2.93;;;;;;;5.71;100.00;100439.72;6249584;22;20464;-83
2023/12/09 08:12:27;;;;;;;17.17;2.20;;;;;;;5.72;100.00;100441.38;6224823;22;20016;-83
2023/12/09 08:14:56;;;;;;;12.32;2.50;;;;;;;5.79;100.00;100447.66;6249799;22;20087;-83
2023/12/09 08:17:21;;;;;;;18.45;2.80;;;;;;;5.85;100.00;100446.06;6249533;22;20015;-84
2023/12/09 08:19:49;;;;;;;13.27;2.63;;;;;;;5.91;100.00;100445.28;6224928;22;20456;-84
2023/12/09 08:22:15;;;;;;;15.98;2.47;;;;;;;5.96;100.00;100442.00;6250670;22;20011;-84
2023/12/09 08:24:40;;;;;;;14.50;2.50;;;;;;;6.00;100.00;100442.50;6249223;22;20095;-83
2023/12/09 08:27:06;;;;;;;15.07;2.20;;;;;;;6.02;100.00;100446.63;6225070;22;20094;-84
2023/12/09 08:29:31;;;;;;;13.80;1.80;;;;;;;6.07;100.00;100436.13;6224480;22;20008;-83
2023/12/09 08:31:57;;;;;;;14.40;2.13;;;;;;;6.07;100.00;100435.31;6225745;22;20018;-84
2023/12/09 08:34:23;;;;;;;15.73;2.63;;;;;;;6.12;100.00;100425.56;6251194;22;20369;-84
2023/12/09 08:36:53;;;;;;;13.50;2.35;;;;;;;6.13;100.00;100427.25;6278779;22;20003;-84
2023/12/09 08:39:23;;;;;;;17.85;2.60;;;;;;;6.14;100.00;100428.94;6251572;22;20103;-83
2023/12/09 08:41:48;;;;;;;11.77;2.15;;;;;;;6.19;100.00;100431.03;6251501;22;20094;-84
2023/12/09 08:44:16;;;;;;;15.00;1.93;;;;;;;6.25;100.00;100415.94;6252496;22;20011;-83
2023/12/09 08:46:42;;;;;;;16.80;2.38;;;;;;;6.28;100.00;100408.28;6251151;22;20008;-84
2023/12/09 08:49:07;;;;;;;13.27;2.50;;;;;;;6.26;100.00;100402.28;6251148;22;20334;-84
2023/12/09 08:51:49;;;;;;;10.67;1.73;;;;;;;6.35;100.00;100402.94;6225368;22;20023;-86
2023/12/09 08:54:15;;;;;;;12.13;2.30;;;;;;;6.35;100.00;100399.41;6251047;22;20041;-85
2023/12/09 08:56:46;;;;;;;13.05;2.42;;;;;;;6.36;100.00;100403.75;6251412;22;20050;-85
2023/12/09 08:59:12;;;;;;;12.77;2.00;;;;;;;6.39;100.00;100401.53;6252493;22;20418;-85
2023/12/09 09:01:37;;;;;;;15.53;1.80;;;;;;;6.44;100.00;100392.84;6250880;22;20046;-84
2023/12/09 09:04:08;;;;;;;15.67;2.00;;;;;;;6.43;100.00;100385.78;6225286;22;20019;-87
2023/12/09 09:06:34;;;;;;;7.28;1.40;;;;;;;6.47;100.00;100393.25;6200823;22;20018;-86
2023/12/09 09:08:59;;;;;;;12.07;1.70;;;;;;;6.49;100.00;100388.50;6225603;22;20015;-85
2023/12/09 09:11:27;;;;;;;8.23;1.37;;;;;;;6.54;100.00;100370.88;6226037;22;20023;-86
2023/12/09 09:13:52;;;;;;;15.98;2.38;;;;;;;6.55;100.00;100359.91;6251587;22;20031;-86
2023/12/09 09:16:18;;;;;;;16.20;2.25;;;;;;;6.61;100.00;100342.91;6276780;22;20008;-86
2023/12/09 09:18:43;;;;;;;8.53;1.50;;;;;;;6.62;100.00;100330.28;6251422;22;20005;-85
2023/12/09 09:21:12;;;;;;;8.90;1.40;;;;;;;6.61;100.00;100318.66;6251127;22;20046;-86
2023/12/09 09:23:37;;;;;;;6.00;1.77;;;;;;;6.51;100.00;100312.84;6251290;22;20008;-86
2023/12/09 09:26:04;;;;;;;9.70;1.40;;;;;;;6.40;100.00;100295.38;6278192;22;20311;-86
2023/12/09 09:28:30;;;;;;;13.07;1.55;;;;;;;6.31;100.00;100293.91;6251341;22;20008;-86
2023/12/09 09:30:58;;;;;;;9.33;2.03;;;;;;;6.26;100.00;100282.88;6251406;22;20318;-86
2023/12/09 09:33:24;;;;;;;13.50;1.90;;;;;;;6.22;100.00;100284.34;6225584;22;20098;-85
2023/12/09 09:35:51;;;;;;;14.63;1.27;;;;;;;6.27;100.00;100289.94;6225836;22;20105;-85
2023/12/09 09:38:19;;;;;;;10.40;2.25;;;;;;;6.27;100.00;100285.38;6201204;22;20007;-85
2023/12/09 09:40:44;;;;;;;9.93;2.13;;;;;;;6.31;100.00;100292.03;6250872;22;20079;-85
2023/12/09 09:43:22;;;;;;;12.93;1.60;;;;;;;6.42;100.00;100295.16;6251020;22;20426;-86
2023/12/09 09:45:53;;;;;;;8.07;1.65;;;;;;;6.48;100.00;100289.81;6251307;22;20022;-86
2023/12/09 09:48:24;;;;;;;9.65;1.60;;;;;;;6.60;100.00;100281.97;6251590;22;20023;-86
2023/12/09 09:50:56;;;;;;;8.13;1.50;;;;;;;6.65;100.00;100276.78;6278458;22;20079;-85
2023/12/09 09:53:34;;;;;;;10.13;1.90;;;;;;;6.81;100.00;100261.28;6250206;22;20011;-86
2023/12/09 09:56:01;;;;;;;10.88;1.30;;;;;;;6.81;100.00;100254.03;6251109;22;20003;-86
2023/12/09 09:58:35;;;;;;;11.02;1.40;;;;;;;6.86;100.00;100250.69;6225318;22;20150;-84
2023/12/09 10:01:04;;;;;;;10.25;1.52;;;;;;;6.92;100.00;100249.88;6251716;22;20086;-85
2023/12/09 10:03:30;;;;;;;13.43;1.97;;;;;;;6.98;100.00;100245.53;6278246;22;20003;-86
2023/12/09 10:05:58;;;;;;;9.85;1.40;;;;;;;7.06;100.00;100234.53;6251078;22;20489;-84
2023/12/09 10:08:31;;;;;;;11.23;1.60;;;;;;;7.09;100.00;100223.34;6277295;22;20006;-84
2023/12/09 10:10:59;;;;;;;13.77;1.30;;;;;;;7.11;100.00;100213.16;6227277;22;20004;-84
2023/12/09 10:13:25;;;;;;;9.20;1.20;;;;;;;7.11;100.00;100188.88;6278654;22;20011;-85
2023/12/09 10:15:50;;;;;;;11.82;1.70;;;;;;;7.15;100.00;100186.59;6251564;22;20012;-85
2023/12/09 10:18:20;;;;;;;10.93;1.97;;;;;;;7.15;100.00;100173.13;6250972;22;20007;-85
2023/12/09 10:20:46;;;;;;;11.30;1.40;;;;;;;7.15;100.00;100173.94;6228085;22;20024;-84
2023/12/09 10:23:12;;;;;;;8.03;1.70;;;;;;;7.14;100.00;100166.88;6220060;23;20008;-84
2023/12/09 10:25:40;;;;;;;7.25;1.35;;;;;;;7.18;100.00;100151.94;6247076;23;20012;-84
2023/12/09 10:28:08;;;;;;;8.25;1.50;;;;;;;7.22;100.00;100140.72;6195132;23;20008;-85
2023/12/09 10:30:34;;;;;;;8.20;1.30;;;;;;;7.24;100.00;100139.47;6219888;23;20016;-84
2023/12/09 10:33:06;;;;;;;9.80;1.30;;;;;;;7.29;100.00;100134.28;6220147;23;20035;-84
2023/12/09 10:35:34;;;;;;;4.70;1.17;;;;;;;7.33;100.00;100113.09;6219433;23;20022;-84
2023/12/09 10:38:01;;;;;;;6.68;1.40;;;;;;;7.32;100.00;100120.38;6194939;23;20012;-84
2023/12/09 10:40:27;;;;;;;6.85;1.35;;;;;;;7.29;100.00;100112.69;6220023;23;20028;-84
2023/12/09 10:42:52;;;;;;;10.52;1.45;;;;;;;7.27;100.00;100111.25;6219702;23;20044;-84
2023/12/09 10:45:18;;;;;;;5.73;0.93;;;;;;;7.28;100.00;100104.78;6219751;23;20020;-84
2023/12/09 10:47:43;;;;;;;9.23;1.10;;;;;;;7.24;100.00;100076.59;6219833;23;20016;-84
2023/12/09 10:50:09;;;;;;;6.47;1.20;;;;;;;7.14;100.00;100061.66;6244822;23;20008;-84
2023/12/09 10:52:36;;;;;;;9.70;0.93;;;;;;;7.09;100.00;100057.97;6220045;23;20004;-85
2023/12/09 10:55:01;;;;;;;7.90;1.23;;;;;;;6.96;100.00;100045.34;6193952;23;20020;-87
2023/12/09 10:57:32;;;;;;;8.07;1.30;;;;;;;6.87;100.00;100038.50;6247059;23;20406;-85
2023/12/09 10:59:58;;;;;;;8.60;1.00;;;;;;;6.87;100.00;100022.34;6246731;23;20012;-85
2023/12/09 11:02:26;;;;;;;9.68;1.83;;;;;;;6.77;100.00;100023.56;6219318;23;20027;-84
2023/12/09 11:04:52;;;;;;;9.10;1.20;;;;;;;6.75;100.00;100014.88;6220247;23;20327;-83
2023/12/09 11:07:18;;;;;;;11.77;1.60;;;;;;;6.71;100.00;100013.63;6219715;23;20335;-82
2023/12/09 11:09:45;;;;;;;5.65;0.80;;;;;;;6.74;100.00;100007.81;6219906;23;20366;-82
2023/12/09 11:12:22;;;;;;;6.82;0.90;;;;;;;6.68;100.00;99989.81;6194601;23;20162;-82
2023/12/09 11:14:47;;;;;;;5.35;0.98;;;;;;;6.68;100.00;99970.94;6220462;23;20335;-82
2023/12/09 11:17:34;;;;;;;12.97;1.67;;;;;;;6.65;100.00;99958.69;6219621;23;20016;-83